Fields Landing, California
Current Conditions -  °F | °C
As of 8:15 PM on Sunday 21 Dec 2014 (Local Time) from KFOT Reporting Station
Overcast Overcast  
Wind Chill: 57°   Ceiling: 100
Heat Index: 57°   Visibility: 0.25mi
Dew Point: 57°   Wind: 5mph
Humidity: 100%   Direction: 280°W
Pressure: 30.33"   Gusts: NA
Location:  40.72°N, 124.22°W
Report Text: KFOT 220415Z AUTO 28004KT 1/4SM OVC001 14/14 A3033 RMK AO1 P0001
Loading
Personal Weather Stations






























Interactive Weather Map New forecast layout! Learn more

10-Day Weather Forecast

Advertisements
Track Severe Weather on mobile